sensor_id;sensor_type;location;lat;lon;timestamp;temperature;humidity
12720;DHT22;6424;48.520;11.228;2023-04-01T00:01:56;7.60;99.90
12720;DHT22;6424;48.520;11.228;2023-04-01T00:04:36;7.60;99.90
12720;DHT22;6424;48.520;11.228;2023-04-01T00:07:02;7.60;99.90
12720;DHT22;6424;48.520;11.228;2023-04-01T00:09:43;7.60;99.90
12720;DHT22;6424;48.520;11.228;2023-04-01T00:12:24;7.60;99.90
12720;DHT22;6424;48.520;11.228;2023-04-01T00:14:51;7.60;99.90
12720;DHT22;6424;48.520;11.228;2023-04-01T00:17:31;7.60;99.90
12720;DHT22;6424;48.520;11.228;2023-04-01T00:20:12;7.70;99.90
12720;DHT22;6424;48.520;11.228;2023-04-01T00:22:54;7.70;99.90
12720;DHT22;6424;48.520;11.228;2023-04-01T00:25:35;7.70;99.90
12720;DHT22;6424;48.520;11.228;2023-04-01T00:28:17;7.60;99.90
12720;DHT22;6424;48.520;11.228;2023-04-01T00:30:58;7.50;99.90
12720;DHT22;6424;48.520;11.228;2023-04-01T00:33:43;7.40;99.90
12720;DHT22;6424;48.520;11.228;2023-04-01T00:36:25;7.40;99.90
12720;DHT22;6424;48.520;11.228;2023-04-01T00:39:05;7.30;99.90
12720;DHT22;6424;48.520;11.228;2023-04-01T00:41:47;7.30;99.90
12720;DHT22;6424;48.520;11.228;2023-04-01T00:44:30;7.30;99.90
12720;DHT22;6424;48.520;11.228;2023-04-01T00:47:12;7.20;99.90
12720;DHT22;6424;48.520;11.228;2023-04-01T00:49:54;7.30;99.90
12720;DHT22;6424;48.520;11.228;2023-04-01T00:52:36;7.30;99.90
12720;DHT22;6424;48.520;11.228;2023-04-01T00:55:19;7.30;99.90
12720;DHT22;6424;48.520;11.228;2023-04-01T00:58:02;7.30;99.90
12720;DHT22;6424;48.520;11.228;2023-04-01T01:00:45;7.30;99.90
12720;DHT22;6424;48.520;11.228;2023-04-01T01:03:27;7.30;99.90
12720;DHT22;6424;48.520;11.228;2023-04-01T01:09:31;7.30;99.90
12720;DHT22;6424;48.520;11.228;2023-04-01T01:12:18;7.30;99.90
12720;DHT22;6424;48.520;11.228;2023-04-01T01:15:19;7.30;99.90
12720;DHT22;6424;48.520;11.228;2023-04-01T01:18:03;7.20;99.90
12720;DHT22;6424;48.520;11.228;2023-04-01T01:24:30;7.20;99.90
12720;DHT22;6424;48.520;11.228;2023-04-01T01:27:20;7.20;99.90
12720;DHT22;6424;48.520;11.228;2023-04-01T01:30:16;7.20;99.90
12720;DHT22;6424;48.520;11.228;2023-04-01T01:36:05;7.20;99.90
12720;DHT22;6424;48.520;11.228;2023-04-01T01:38:48;7.20;99.90
12720;DHT22;6424;48.520;11.228;2023-04-01T01:41:32;7.20;99.90
12720;DHT22;6424;48.520;11.228;2023-04-01T01:44:17;7.20;99.90
12720;DHT22;6424;48.520;11.228;2023-04-01T01:46:58;7.20;99.90
12720;DHT22;6424;48.520;11.228;2023-04-01T01:49:42;7.20;99.90
12720;DHT22;6424;48.520;11.228;2023-04-01T01:52:24;7.10;99.90
12720;DHT22;6424;48.520;11.228;2023-04-01T01:58:20;7.10;99.90
12720;DHT22;6424;48.520;11.228;2023-04-01T02:01:05;7.10;99.90
12720;DHT22;6424;48.520;11.228;2023-04-01T02:03:47;7.10;99.90
12720;DHT22;6424;48.520;11.228;2023-04-01T02:06:19;7.10;99.90
12720;DHT22;6424;48.520;11.228;2023-04-01T02:09:06;7.10;99.90
12720;DHT22;6424;48.520;11.228;2023-04-01T02:11:57;7.10;99.90
12720;DHT22;6424;48.520;11.228;2023-04-01T02:17:21;7.10;99.90
12720;DHT22;6424;48.520;11.228;2023-04-01T02:20:09;7.10;99.90
12720;DHT22;6424;48.520;11.228;2023-04-01T02:22:53;7.10;99.90
12720;DHT22;6424;48.520;11.228;2023-04-01T02:25:36;7.10;99.90
12720;DHT22;6424;48.520;11.228;2023-04-01T02:28:18;7.10;99.90
12720;DHT22;6424;48.520;11.228;2023-04-01T02:31:01;7.10;99.90
12720;DHT22;6424;48.520;11.228;2023-04-01T02:33:43;7.10;99.90
12720;DHT22;6424;48.520;11.228;2023-04-01T02:36:25;7.10;99.90
12720;DHT22;6424;48.520;11.228;2023-04-01T02:39:06;7.10;99.90
12720;DHT22;6424;48.520;11.228;2023-04-01T02:41:42;7.10;99.90
12720;DHT22;6424;48.520;11.228;2023-04-01T02:44:23;7.00;99.90
12720;DHT22;6424;48.520;11.228;2023-04-01T02:47:04;7.00;99.90
12720;DHT22;6424;48.520;11.228;2023-04-01T02:49:44;7.00;99.90
12720;DHT22;6424;48.520;11.228;2023-04-01T02:52:26;6.90;99.90
12720;DHT22;6424;48.520;11.228;2023-04-01T02:55:07;6.90;99.90
12720;DHT22;6424;48.520;11.228;2023-04-01T02:57:48;6.80;99.90
12720;DHT22;6424;48.520;11.228;2023-04-01T03:00:29;6.80;99.90
12720;DHT22;6424;48.520;11.228;2023-04-01T03:03:10;6.80;99.90
12720;DHT22;6424;48.520;11.228;2023-04-01T03:05:51;6.80;99.90
12720;DHT22;6424;48.520;11.228;2023-04-01T03:08:32;6.80;99.90
12720;DHT22;6424;48.520;11.228;2023-04-01T03:11:13;6.80;99.90
12720;DHT22;6424;48.520;11.228;2023-04-01T03:13:54;6.80;99.90
12720;DHT22;6424;48.520;11.228;2023-04-01T03:16:34;6.80;99.90
12720;DHT22;6424;48.520;11.228;2023-04-01T03:19:15;6.80;99.90
12720;DHT22;6424;48.520;11.228;2023-04-01T03:21:56;6.80;99.90
12720;DHT22;6424;48.520;11.228;2023-04-01T03:24:37;6.80;99.90
12720;DHT22;6424;48.520;11.228;2023-04-01T03:27:17;6.80;99.90
12720;DHT22;6424;48.520;11.228;2023-04-01T03:29:43;6.80;99.90
12720;DHT22;6424;48.520;11.228;2023-04-01T03:32:09;6.70;99.90
12720;DHT22;6424;48.520;11.228;2023-04-01T03:34:35;6.70;99.90
12720;DHT22;6424;48.520;11.228;2023-04-01T03:37:15;6.80;99.90
12720;DHT22;6424;48.520;11.228;2023-04-01T03:39:56;6.70;99.90
12720;DHT22;6424;48.520;11.228;2023-04-01T03:42:37;6.70;99.90
12720;DHT22;6424;48.520;11.228;2023-04-01T03:45:18;6.70;99.90
12720;DHT22;6424;48.520;11.228;2023-04-01T03:47:59;6.70;99.90
12720;DHT22;6424;48.520;11.228;2023-04-01T03:50:40;6.70;99.90
12720;DHT22;6424;48.520;11.228;2023-04-01T03:53:06;6.70;99.90
12720;DHT22;6424;48.520;11.228;2023-04-01T03:55:47;6.70;99.90
12720;DHT22;6424;48.520;11.228;2023-04-01T03:58:28;6.70;99.90
12720;DHT22;6424;48.520;11.228;2023-04-01T04:01:20;6.60;99.90
12720;DHT22;6424;48.520;11.228;2023-04-01T04:04:01;6.50;99.90
12720;DHT22;6424;48.520;11.228;2023-04-01T04:06:42;6.50;99.90
12720;DHT22;6424;48.520;11.228;2023-04-01T04:09:23;6.40;99.90
12720;DHT22;6424;48.520;11.228;2023-04-01T04:12:04;6.40;99.90
12720;DHT22;6424;48.520;11.228;2023-04-01T04:14:46;6.40;99.90
12720;DHT22;6424;48.520;11.228;2023-04-01T04:17:26;6.40;99.90
12720;DHT22;6424;48.520;11.228;2023-04-01T04:20:08;6.30;99.90
12720;DHT22;6424;48.520;11.228;2023-04-01T04:22:49;6.30;99.90
12720;DHT22;6424;48.520;11.228;2023-04-01T04:25:30;6.30;99.90
12720;DHT22;6424;48.520;11.228;2023-04-01T04:27:56;6.40;99.90
12720;DHT22;6424;48.520;11.228;2023-04-01T04:30:36;6.40;99.90
12720;DHT22;6424;48.520;11.228;2023-04-01T04:33:17;6.50;99.90
12720;DHT22;6424;48.520;11.228;2023-04-01T04:35:59;6.50;99.90
12720;DHT22;6424;48.520;11.228;2023-04-01T04:38:40;6.60;99.90
12720;DHT22;6424;48.520;11.228;2023-04-01T04:41:21;6.50;99.90
12720;DHT22;6424;48.520;11.228;2023-04-01T04:44:02;6.50;99.90
12720;DHT22;6424;48.520;11.228;2023-04-01T04:46:43;6.50;99.90
12720;DHT22;6424;48.520;11.228;2023-04-01T04:49:24;6.40;99.90
12720;DHT22;6424;48.520;11.228;2023-04-01T04:52:05;6.40;99.90
12720;DHT22;6424;48.520;11.228;2023-04-01T04:54:30;6.30;99.90
12720;DHT22;6424;48.520;11.228;2023-04-01T04:57:11;6.30;99.90
12720;DHT22;6424;48.520;11.228;2023-04-01T04:59:52;6.30;99.90
12720;DHT22;6424;48.520;11.228;2023-04-01T05:02:33;6.30;99.90
12720;DHT22;6424;48.520;11.228;2023-04-01T05:05:14;6.30;99.90
12720;DHT22;6424;48.520;11.228;2023-04-01T05:07:54;6.30;99.90
12720;DHT22;6424;48.520;11.228;2023-04-01T05:10:35;6.30;99.90
12720;DHT22;6424;48.520;11.228;2023-04-01T05:13:16;6.30;99.90
12720;DHT22;6424;48.520;11.228;2023-04-01T05:15:57;6.40;99.90
12720;DHT22;6424;48.520;11.228;2023-04-01T05:18:38;6.40;99.90
12720;DHT22;6424;48.520;11.228;2023-04-01T05:21:19;6.50;99.90
12720;DHT22;6424;48.520;11.228;2023-04-01T05:23:44;6.50;99.90
12720;DHT22;6424;48.520;11.228;2023-04-01T05:26:25;6.50;99.90
12720;DHT22;6424;48.520;11.228;2023-04-01T05:29:06;6.50;99.90
12720;DHT22;6424;48.520;11.228;2023-04-01T05:31:47;6.50;99.90
12720;DHT22;6424;48.520;11.228;2023-04-01T05:34:27;6.50;99.90
12720;DHT22;6424;48.520;11.228;2023-04-01T05:37:08;6.60;99.90
12720;DHT22;6424;48.520;11.228;2023-04-01T05:39:50;6.60;99.90
12720;DHT22;6424;48.520;11.228;2023-04-01T05:42:30;6.70;99.90
12720;DHT22;6424;48.520;11.228;2023-04-01T05:45:11;6.70;99.90
12720;DHT22;6424;48.520;11.228;2023-04-01T05:47:52;6.80;99.90
12720;DHT22;6424;48.520;11.228;2023-04-01T05:50:33;6.80;99.90
12720;DHT22;6424;48.520;11.228;2023-04-01T05:53:14;6.80;99.90
12720;DHT22;6424;48.520;11.228;2023-04-01T05:55:55;6.90;99.90
12720;DHT22;6424;48.520;11.228;2023-04-01T05:58:36;6.90;99.90
12720;DHT22;6424;48.520;11.228;2023-04-01T06:01:08;7.00;99.90
12720;DHT22;6424;48.520;11.228;2023-04-01T06:03:49;7.00;99.90
12720;DHT22;6424;48.520;11.228;2023-04-01T06:06:31;7.10;99.90
12720;DHT22;6424;48.520;11.228;2023-04-01T06:09:18;7.40;99.90
12720;DHT22;6424;48.520;11.228;2023-04-01T06:12:17;7.90;99.90
12720;DHT22;6424;48.520;11.228;2023-04-01T06:19:01;9.20;99.90
12720;DHT22;6424;48.520;11.228;2023-04-01T06:30:41;10.50;99.90
12720;DHT22;6424;48.520;11.228;2023-04-01T06:42:40;9.60;99.90
12720;DHT22;6424;48.520;11.228;2023-04-01T06:51:25;8.60;99.90
12720;DHT22;6424;48.520;11.228;2023-04-01T06:54:21;8.40;99.90
12720;DHT22;6424;48.520;11.228;2023-04-01T07:00:12;8.30;99.90
12720;DHT22;6424;48.520;11.228;2023-04-01T07:05:42;8.30;99.90
12720;DHT22;6424;48.520;11.228;2023-04-01T07:08:25;8.30;99.90
12720;DHT22;6424;48.520;11.228;2023-04-01T07:11:11;8.40;99.90
12720;DHT22;6424;48.520;11.228;2023-04-01T07:19:41;9.80;99.90
12720;DHT22;6424;48.520;11.228;2023-04-01T07:22:29;9.70;99.90
12720;DHT22;6424;48.520;11.228;2023-04-01T07:25:21;9.70;99.90
12720;DHT22;6424;48.520;11.228;2023-04-01T07:28:05;9.80;99.90
12720;DHT22;6424;48.520;11.228;2023-04-01T07:30:56;9.80;99.90
12720;DHT22;6424;48.520;11.228;2023-04-01T07:36:48;9.80;99.90
12720;DHT22;6424;48.520;11.228;2023-04-01T07:40:06;9.70;99.90
12720;DHT22;6424;48.520;11.228;2023-04-01T07:52:53;9.70;99.90
12720;DHT22;6424;48.520;11.228;2023-04-01T07:55:27;9.80;99.90
12720;DHT22;6424;48.520;11.228;2023-04-01T07:58:21;9.90;99.90
12720;DHT22;6424;48.520;11.228;2023-04-01T08:01:36;10.00;99.90
12720;DHT22;6424;48.520;11.228;2023-04-01T08:04:36;10.30;99.90
12720;DHT22;6424;48.520;11.228;2023-04-01T08:07:25;10.40;99.90
12720;DHT22;6424;48.520;11.228;2023-04-01T08:10:22;10.30;99.90
12720;DHT22;6424;48.520;11.228;2023-04-01T08:21:50;9.90;99.90
12720;DHT22;6424;48.520;11.228;2023-04-01T08:24:42;9.80;99.90
12720;DHT22;6424;48.520;11.228;2023-04-01T08:30:47;10.00;99.90
12720;DHT22;6424;48.520;11.228;2023-04-01T08:33:30;10.10;99.90
12720;DHT22;6424;48.520;11.228;2023-04-01T08:36:40;10.30;99.90
12720;DHT22;6424;48.520;11.228;2023-04-01T08:39:36;10.60;99.90
12720;DHT22;6424;48.520;11.228;2023-04-01T08:42:41;10.90;99.90
12720;DHT22;6424;48.520;11.228;2023-04-01T08:52:07;11.10;99.90
12720;DHT22;6424;48.520;11.228;2023-04-01T09:00:46;10.90;99.90
12720;DHT22;6424;48.520;11.228;2023-04-01T09:03:45;10.80;99.90
12720;DHT22;6424;48.520;11.228;2023-04-01T09:16:15;10.70;99.90
12720;DHT22;6424;48.520;11.228;2023-04-01T09:24:30;10.50;99.90
12720;DHT22;6424;48.520;11.228;2023-04-01T09:32:47;10.90;99.90
12720;DHT22;6424;48.520;11.228;2023-04-01T09:35:48;10.90;99.90
12720;DHT22;6424;48.520;11.228;2023-04-01T09:44:04;11.10;99.90
12720;DHT22;6424;48.520;11.228;2023-04-01T09:49:53;11.20;99.90
12720;DHT22;6424;48.520;11.228;2023-04-01T09:52:40;11.30;99.90
12720;DHT22;6424;48.520;11.228;2023-04-01T09:59:03;11.30;99.90
12720;DHT22;6424;48.520;11.228;2023-04-01T10:05:27;11.00;99.90
12720;DHT22;6424;48.520;11.228;2023-04-01T10:08:19;10.80;99.90
12720;DHT22;6424;48.520;11.228;2023-04-01T10:11:15;10.70;99.90
12720;DHT22;6424;48.520;11.228;2023-04-01T10:20:29;10.80;99.90
12720;DHT22;6424;48.520;11.228;2023-04-01T10:27:11;10.80;99.90
12720;DHT22;6424;48.520;11.228;2023-04-01T11:17:03;9.20;99.90
12720;DHT22;6424;48.520;11.228;2023-04-01T11:40:21;8.50;99.90
12720;DHT22;6424;48.520;11.228;2023-04-01T11:43:29;8.50;99.90
12720;DHT22;6424;48.520;11.228;2023-04-01T11:52:52;8.50;99.90
12720;DHT22;6424;48.520;11.228;2023-04-01T11:55:41;8.40;99.90
12720;DHT22;6424;48.520;11.228;2023-04-01T12:01:42;8.40;99.90
12720;DHT22;6424;48.520;11.228;2023-04-01T12:07:40;8.40;99.90
12720;DHT22;6424;48.520;11.228;2023-04-01T12:17:02;8.60;99.90
12720;DHT22;6424;48.520;11.228;2023-04-01T12:41:13;9.20;99.90
12720;DHT22;6424;48.520;11.228;2023-04-01T12:44:23;9.30;99.90
12720;DHT22;6424;48.520;11.228;2023-04-01T12:50:14;9.40;99.90
12720;DHT22;6424;48.520;11.228;2023-04-01T12:53:33;9.40;99.90
12720;DHT22;6424;48.520;11.228;2023-04-01T13:05:37;9.40;99.90
12720;DHT22;6424;48.520;11.228;2023-04-01T13:12:05;9.70;99.90
12720;DHT22;6424;48.520;11.228;2023-04-01T13:23:20;9.40;99.90
12720;DHT22;6424;48.520;11.228;2023-04-01T13:28:40;9.40;99.90
12720;DHT22;6424;48.520;11.228;2023-04-01T13:40:00;9.40;99.90
12720;DHT22;6424;48.520;11.228;2023-04-01T13:42:49;9.30;99.90
12720;DHT22;6424;48.520;11.228;2023-04-01T13:57:40;9.20;99.90
12720;DHT22;6424;48.520;11.228;2023-04-01T14:12:40;9.40;99.90
12720;DHT22;6424;48.520;11.228;2023-04-01T14:15:33;9.40;99.90
12720;DHT22;6424;48.520;11.228;2023-04-01T14:39:52;9.50;99.90
12720;DHT22;6424;48.520;11.228;2023-04-01T14:48:38;9.50;99.90
12720;DHT22;6424;48.520;11.228;2023-04-01T14:51:35;9.50;99.90
12720;DHT22;6424;48.520;11.228;2023-04-01T14:54:31;9.50;99.90
12720;DHT22;6424;48.520;11.228;2023-04-01T14:57:26;9.50;99.90
12720;DHT22;6424;48.520;11.228;2023-04-01T15:00:15;9.50;99.90
12720;DHT22;6424;48.520;11.228;2023-04-01T15:03:31;9.50;99.90
12720;DHT22;6424;48.520;11.228;2023-04-01T15:24:50;9.30;99.90
12720;DHT22;6424;48.520;11.228;2023-04-01T15:27:37;9.20;99.90
12720;DHT22;6424;48.520;11.228;2023-04-01T15:33:25;9.20;99.90
12720;DHT22;6424;48.520;11.228;2023-04-01T15:51:48;9.20;99.90
12720;DHT22;6424;48.520;11.228;2023-04-01T15:54:50;9.30;99.90
12720;DHT22;6424;48.520;11.228;2023-04-01T16:03:57;9.40;99.90
12720;DHT22;6424;48.520;11.228;2023-04-01T16:18:53;9.60;99.90
12720;DHT22;6424;48.520;11.228;2023-04-01T16:25:59;9.60;99.90
12720;DHT22;6424;48.520;11.228;2023-04-01T16:34:14;9.40;99.90
12720;DHT22;6424;48.520;11.228;2023-04-01T16:37:15;9.50;99.90
12720;DHT22;6424;48.520;11.228;2023-04-01T16:40:24;9.40;99.90
12720;DHT22;6424;48.520;11.228;2023-04-01T16:43:35;9.40;99.90
12720;DHT22;6424;48.520;11.228;2023-04-01T16:46:37;9.40;99.90
12720;DHT22;6424;48.520;11.228;2023-04-01T16:49:42;9.40;99.90
12720;DHT22;6424;48.520;11.228;2023-04-01T16:52:44;9.30;99.90
12720;DHT22;6424;48.520;11.228;2023-04-01T16:58:27;9.30;99.90
12720;DHT22;6424;48.520;11.228;2023-04-01T17:01:41;9.30;99.90
12720;DHT22;6424;48.520;11.228;2023-04-01T17:04:43;9.30;99.90
12720;DHT22;6424;48.520;11.228;2023-04-01T17:17:16;9.20;99.90
12720;DHT22;6424;48.520;11.228;2023-04-01T17:23:10;9.10;99.90
12720;DHT22;6424;48.520;11.228;2023-04-01T17:32:19;9.00;99.90
12720;DHT22;6424;48.520;11.228;2023-04-01T17:41:14;8.90;99.90
12720;DHT22;6424;48.520;11.228;2023-04-01T17:50:20;8.90;99.90
12720;DHT22;6424;48.520;11.228;2023-04-01T17:58:58;8.80;99.90
12720;DHT22;6424;48.520;11.228;2023-04-01T18:07:45;8.70;99.90
12720;DHT22;6424;48.520;11.228;2023-04-01T18:10:43;8.70;99.90
12720;DHT22;6424;48.520;11.228;2023-04-01T18:22:17;8.70;99.90
12720;DHT22;6424;48.520;11.228;2023-04-01T18:30:53;8.70;99.90
12720;DHT22;6424;48.520;11.228;2023-04-01T18:33:55;8.70;99.90
12720;DHT22;6424;48.520;11.228;2023-04-01T18:36:44;8.70;99.90
12720;DHT22;6424;48.520;11.228;2023-04-01T18:45:36;8.70;99.90
12720;DHT22;6424;48.520;11.228;2023-04-01T18:51:13;8.60;99.90
12720;DHT22;6424;48.520;11.228;2023-04-01T18:53:59;8.50;99.90
12720;DHT22;6424;48.520;11.228;2023-04-01T18:56:43;8.50;99.90
12720;DHT22;6424;48.520;11.228;2023-04-01T18:59:28;8.50;99.90
12720;DHT22;6424;48.520;11.228;2023-04-01T19:02:43;8.50;99.90
12720;DHT22;6424;48.520;11.228;2023-04-01T19:05:34;8.50;99.90
12720;DHT22;6424;48.520;11.228;2023-04-01T19:08:31;8.40;99.90
12720;DHT22;6424;48.520;11.228;2023-04-01T19:11:40;8.40;99.90
12720;DHT22;6424;48.520;11.228;2023-04-01T19:17:46;8.40;99.90
12720;DHT22;6424;48.520;11.228;2023-04-01T19:20:37;8.50;99.90
12720;DHT22;6424;48.520;11.228;2023-04-01T19:35:29;8.40;99.90
12720;DHT22;6424;48.520;11.228;2023-04-01T19:38:36;8.50;99.90
12720;DHT22;6424;48.520;11.228;2023-04-01T19:50:31;8.40;99.90
12720;DHT22;6424;48.520;11.228;2023-04-01T19:53:20;8.40;99.90
12720;DHT22;6424;48.520;11.228;2023-04-01T19:56:17;8.40;99.90
12720;DHT22;6424;48.520;11.228;2023-04-01T20:01:41;8.30;99.90
12720;DHT22;6424;48.520;11.228;2023-04-01T20:04:44;8.30;99.90
12720;DHT22;6424;48.520;11.228;2023-04-01T20:07:41;8.20;99.90
12720;DHT22;6424;48.520;11.228;2023-04-01T20:10:42;8.10;99.90
12720;DHT22;6424;48.520;11.228;2023-04-01T20:13:33;8.10;99.90
12720;DHT22;6424;48.520;11.228;2023-04-01T20:16:17;8.10;99.90
12720;DHT22;6424;48.520;11.228;2023-04-01T20:19:00;8.10;99.90
12720;DHT22;6424;48.520;11.228;2023-04-01T20:21:45;8.10;99.90
12720;DHT22;6424;48.520;11.228;2023-04-01T20:24:21;8.10;99.90
12720;DHT22;6424;48.520;11.228;2023-04-01T20:27:31;8.10;99.90
12720;DHT22;6424;48.520;11.228;2023-04-01T20:30:33;8.10;99.90
12720;DHT22;6424;48.520;11.228;2023-04-01T20:33:41;8.10;99.90
12720;DHT22;6424;48.520;11.228;2023-04-01T20:36:57;8.10;99.90
12720;DHT22;6424;48.520;11.228;2023-04-01T20:51:39;8.00;99.90
12720;DHT22;6424;48.520;11.228;2023-04-01T20:57:14;8.00;99.90
12720;DHT22;6424;48.520;11.228;2023-04-01T21:03:28;8.00;99.90
12720;DHT22;6424;48.520;11.228;2023-04-01T21:35:44;7.90;99.90
12720;DHT22;6424;48.520;11.228;2023-04-01T21:38:51;7.90;99.90
12720;DHT22;6424;48.520;11.228;2023-04-01T21:47:39;7.70;99.90
12720;DHT22;6424;48.520;11.228;2023-04-01T21:54:06;7.60;99.90
12720;DHT22;6424;48.520;11.228;2023-04-01T22:03:18;7.40;99.90
12720;DHT22;6424;48.520;11.228;2023-04-01T22:06:00;7.40;99.90
12720;DHT22;6424;48.520;11.228;2023-04-01T22:08:59;7.40;99.90
12720;DHT22;6424;48.520;11.228;2023-04-01T22:12:07;7.30;99.90
12720;DHT22;6424;48.520;11.228;2023-04-01T22:17:52;7.20;99.90
12720;DHT22;6424;48.520;11.228;2023-04-01T22:20:51;7.20;99.90
12720;DHT22;6424;48.520;11.228;2023-04-01T22:23:39;7.10;99.90
12720;DHT22;6424;48.520;11.228;2023-04-01T22:30:04;7.10;99.90
12720;DHT22;6424;48.520;11.228;2023-04-01T22:32:48;7.10;99.90
12720;DHT22;6424;48.520;11.228;2023-04-01T22:39:29;7.00;99.90
12720;DHT22;6424;48.520;11.228;2023-04-01T22:51:00;6.90;99.90
12720;DHT22;6424;48.520;11.228;2023-04-01T22:56:37;6.90;99.90
12720;DHT22;6424;48.520;11.228;2023-04-01T22:59:59;7.00;99.90
12720;DHT22;6424;48.520;11.228;2023-04-01T23:06:00;7.10;99.90
12720;DHT22;6424;48.520;11.228;2023-04-01T23:11:44;7.10;99.90
12720;DHT22;6424;48.520;11.228;2023-04-01T23:23:20;7.10;99.90
12720;DHT22;6424;48.520;11.228;2023-04-01T23:26:17;7.20;99.90
12720;DHT22;6424;48.520;11.228;2023-04-01T23:29:02;7.20;99.90
12720;DHT22;6424;48.520;11.228;2023-04-01T23:31:48;7.20;99.90
12720;DHT22;6424;48.520;11.228;2023-04-01T23:34:34;7.20;99.90
12720;DHT22;6424;48.520;11.228;2023-04-01T23:37:16;7.20;99.90
12720;DHT22;6424;48.520;11.228;2023-04-01T23:39:59;7.20;99.90
12720;DHT22;6424;48.520;11.228;2023-04-01T23:42:41;7.30;99.90
12720;DHT22;6424;48.520;11.228;2023-04-01T23:45:16;7.30;99.90
12720;DHT22;6424;48.520;11.228;2023-04-01T23:48:00;7.30;99.90
12720;DHT22;6424;48.520;11.228;2023-04-01T23:50:41;7.30;99.90
12720;DHT22;6424;48.520;11.228;2023-04-01T23:53:25;7.30;99.90
12720;DHT22;6424;48.520;11.228;2023-04-01T23:56:07;7.30;99.90
12720;DHT22;6424;48.520;11.228;2023-04-01T23:58:44;7.30;99.90
